Time;durP1;ratioP1;P1;durP2;ratioP2;P2;SDS_P1;SDS_P2;PMS_P1;PMS_P2;Temp;Humidity;BMP_temperature;BMP_pressure;BME280_temperature;BME280_humidity;BME280_pressure;Samples;Min_cycle;Max_cycle;Signal;HPM_P1;HPM_P2
2021/11/18 00:00:37;;;;;;;;;25.67;23.33;;;;;;;;4928004;28;45612;-82
2021/11/18 00:03:03;;;;;;;;;27.33;24.00;;;;;;;;4928004;28;47021;-82
2021/11/18 00:05:28;;;;;;;;;25.33;21.67;;;;;;;;4930106;28;45408;-81
2021/11/18 00:07:54;;;;;;;;;19.33;19.33;;;;;;;;4929578;28;45603;-81
2021/11/18 00:10:25;;;;;;;;;23.33;21.33;;;;;;;;4928387;28;45695;-80
2021/11/18 00:15:54;;;;;;;;;20.67;20.67;;;;;;;;4929045;28;45459;-81
2021/11/18 00:18:21;;;;;;;;;19.33;19.33;;;;;;;;4930166;28;45827;-82
2021/11/18 00:21:06;;;;;;;;;23.33;21.33;;;;;;;;4932633;28;45418;-81
2021/11/18 00:23:34;;;;;;;;;21.00;21.00;;;;;;;;4930665;28;46958;-81
2021/11/18 00:25:59;;;;;;;;;20.00;20.00;;;;;;;;4895962;28;45320;-81
2021/11/18 00:28:24;;;;;;;;;15.00;15.00;;;;;;;;4895123;29;45440;-81
2021/11/18 00:30:50;;;;;;;;;16.00;16.00;;;;;;;;4911093;28;45402;-81
2021/11/18 00:33:15;;;;;;;;;26.00;19.67;;;;;;;;4911794;28;45854;-82
2021/11/18 00:35:42;;;;;;;;;21.67;21.00;;;;;;;;4895836;29;45715;-81
2021/11/18 00:38:07;;;;;;;;;23.33;21.67;;;;;;;;4896545;29;45693;-81
2021/11/18 00:40:35;;;;;;;;;24.00;22.00;;;;;;;;4913000;28;45902;-81
2021/11/18 00:43:01;;;;;;;;;20.00;20.00;;;;;;;;4913160;28;45416;-83
2021/11/18 00:45:27;;;;;;;;;20.00;20.00;;;;;;;;4895228;29;45555;-82
2021/11/18 00:47:54;;;;;;;;;17.00;15.67;;;;;;;;4894728;29;45517;-82
2021/11/18 00:50:21;;;;;;;;;27.67;24.33;;;;;;;;4895033;29;45287;-82
2021/11/18 00:52:46;;;;;;;;;23.00;18.33;;;;;;;;4895813;29;47201;-81
2021/11/18 00:55:12;;;;;;;;;22.33;19.00;;;;;;;;4912090;28;45625;-81
2021/11/18 00:57:38;;;;;;;;;19.67;18.33;;;;;;;;4893270;29;45486;-81
2021/11/18 01:00:08;;;;;;;;;27.67;20.00;;;;;;;;4894759;29;44833;-82
2021/11/18 01:02:33;;;;;;;;;26.33;21.67;;;;;;;;4895342;29;46667;-81
2021/11/18 01:04:59;;;;;;;;;21.00;20.67;;;;;;;;4893414;29;45940;-81
2021/11/18 01:07:25;;;;;;;;;18.00;18.00;;;;;;;;4894539;29;45427;-81
2021/11/18 01:09:51;;;;;;;;;20.00;19.67;;;;;;;;4895100;29;45265;-81
2021/11/18 01:12:16;;;;;;;;;24.67;23.67;;;;;;;;4897831;28;46606;-81
2021/11/18 01:14:41;;;;;;;;;29.33;21.67;;;;;;;;4928788;28;45386;-81
2021/11/18 01:17:07;;;;;;;;;21.00;17.33;;;;;;;;4911325;28;45657;-82
2021/11/18 01:19:34;;;;;;;;;23.67;18.00;;;;;;;;4933318;28;45779;-81
2021/11/18 01:22:00;;;;;;;;;17.33;16.33;;;;;;;;4932765;28;46218;-81
2021/11/18 01:24:26;;;;;;;;;20.33;16.33;;;;;;;;4932091;28;45409;-82
2021/11/18 01:26:51;;;;;;;;;19.33;16.33;;;;;;;;4914449;28;45331;-81
2021/11/18 01:29:17;;;;;;;;;19.67;18.33;;;;;;;;4914346;28;45701;-81
2021/11/18 01:31:42;;;;;;;;;17.67;17.67;;;;;;;;4912137;28;47331;-82
2021/11/18 01:34:08;;;;;;;;;22.00;18.67;;;;;;;;4912716;28;45408;-82
2021/11/18 01:36:33;;;;;;;;;18.33;13.00;;;;;;;;4914731;28;45435;-81
2021/11/18 01:38:59;;;;;;;;;22.67;20.00;;;;;;;;4914199;28;45698;-82
2021/11/18 01:41:26;;;;;;;;;20.00;18.00;;;;;;;;4913852;28;47668;-81
2021/11/18 01:43:53;;;;;;;;;21.00;18.33;;;;;;;;4914199;28;45727;-81
2021/11/18 01:46:21;;;;;;;;;19.33;17.33;;;;;;;;4913764;28;45569;-81
2021/11/18 01:48:47;;;;;;;;;19.33;17.33;;;;;;;;4914440;28;45535;-81
2021/11/18 01:51:12;;;;;;;;;20.00;18.00;;;;;;;;4930179;28;46180;-81
2021/11/18 01:53:40;;;;;;;;;16.00;16.00;;;;;;;;4913765;28;45711;-81
2021/11/18 01:56:06;;;;;;;;;22.33;19.00;;;;;;;;4913191;28;45539;-81
2021/11/18 01:58:32;;;;;;;;;20.33;18.67;;;;;;;;4929308;28;45779;-82
2021/11/18 02:00:59;;;;;;;;;18.00;17.00;;;;;;;;4912784;28;46876;-81
2021/11/18 02:03:26;;;;;;;;;18.67;18.67;;;;;;;;4915520;28;45754;-81
2021/11/18 02:05:57;;;;;;;;;20.67;20.67;;;;;;;;4914295;28;45482;-81
2021/11/18 02:08:23;;;;;;;;;19.33;18.33;;;;;;;;4930666;28;45394;-82
2021/11/18 02:10:50;;;;;;;;;18.00;18.00;;;;;;;;4913666;28;46887;-82
2021/11/18 02:13:17;;;;;;;;;22.67;20.33;;;;;;;;4913225;28;45494;-81
2021/11/18 02:16:12;;;;;;;;;22.33;22.33;;;;;;;;4930937;28;45457;-81
2021/11/18 02:18:38;;;;;;;;;23.67;20.00;;;;;;;;4912835;28;45845;-82
2021/11/18 02:24:16;;;;;;;;;24.33;20.00;;;;;;;;4930607;28;45398;-82
2021/11/18 02:26:41;;;;;;;;;20.33;18.33;;;;;;;;4930712;28;44849;-82
2021/11/18 02:29:08;;;;;;;;;22.33;19.00;;;;;;;;4910561;28;44928;-82
2021/11/18 02:31:35;;;;;;;;;19.00;19.00;;;;;;;;4912501;28;47088;-81
2021/11/18 02:34:02;;;;;;;;;20.33;19.00;;;;;;;;4929126;28;45338;-82
2021/11/18 02:36:28;;;;;;;;;20.33;18.00;;;;;;;;4913654;28;45445;-81
2021/11/18 02:38:53;;;;;;;;;21.00;18.33;;;;;;;;4913172;28;44773;-81
2021/11/18 02:41:19;;;;;;;;;21.33;19.00;;;;;;;;4928959;28;46472;-81
2021/11/18 02:43:45;;;;;;;;;19.67;12.67;;;;;;;;4913615;28;45604;-82
2021/11/18 02:46:10;;;;;;;;;18.00;18.00;;;;;;;;4913558;28;44813;-81
2021/11/18 02:48:36;;;;;;;;;19.00;17.33;;;;;;;;4931414;28;44810;-81
2021/11/18 02:51:03;;;;;;;;;17.00;15.00;;;;;;;;4930902;28;46177;-81
2021/11/18 02:53:30;;;;;;;;;18.33;17.00;;;;;;;;4930767;28;44867;-81
2021/11/18 02:55:56;;;;;;;;;14.67;14.00;;;;;;;;4913649;28;45481;-81
2021/11/18 02:58:23;;;;;;;;;17.67;14.67;;;;;;;;4913549;28;45480;-81
2021/11/18 03:00:48;;;;;;;;;18.00;17.67;;;;;;;;4912844;28;48416;-81
2021/11/18 03:03:14;;;;;;;;;17.00;14.33;;;;;;;;4927990;28;45496;-81
2021/11/18 03:05:39;;;;;;;;;16.67;15.00;;;;;;;;4929387;28;45411;-82
2021/11/18 03:08:04;;;;;;;;;17.00;14.67;;;;;;;;4930697;28;45455;-82
2021/11/18 03:13:33;;;;;;;;;15.00;13.00;;;;;;;;4928383;28;45492;-82
2021/11/18 03:15:59;;;;;;;;;14.00;14.00;;;;;;;;4928226;28;44940;-82
2021/11/18 03:18:25;;;;;;;;;12.00;11.67;;;;;;;;4929706;28;45359;-81
2021/11/18 03:20:51;;;;;;;;;18.33;15.33;;;;;;;;4926658;28;46907;-81
2021/11/18 03:23:17;;;;;;;;;21.67;19.33;;;;;;;;4928194;28;45540;-81
2021/11/18 03:25:43;;;;;;;;;17.33;14.33;;;;;;;;4926717;28;45800;-82
2021/11/18 03:28:09;;;;;;;;;17.33;13.00;;;;;;;;4927599;28;45091;-82
2021/11/18 03:30:36;;;;;;;;;18.00;15.67;;;;;;;;4928615;28;45532;-82
2021/11/18 03:33:03;;;;;;;;;15.67;15.67;;;;;;;;4925996;28;45346;-81
2021/11/18 03:35:28;;;;;;;;;17.67;17.33;;;;;;;;4926462;28;45491;-82
2021/11/18 03:37:55;;;;;;;;;17.67;17.00;;;;;;;;4928065;28;45350;-82
2021/11/18 03:40:21;;;;;;;;;13.00;13.00;;;;;;;;4928468;28;46933;-81
2021/11/18 03:42:47;;;;;;;;;18.00;15.33;;;;;;;;4929625;28;45542;-81
2021/11/18 03:45:13;;;;;;;;;17.33;17.33;;;;;;;;4930607;28;45424;-81
2021/11/18 03:47:39;;;;;;;;;16.67;12.67;;;;;;;;4927411;28;45827;-81
2021/11/18 03:50:06;;;;;;;;;11.33;11.33;;;;;;;;4928041;28;46929;-82
2021/11/18 03:52:31;;;;;;;;;14.33;13.67;;;;;;;;4928508;28;45501;-81
2021/11/18 03:54:56;;;;;;;;;14.67;14.67;;;;;;;;4926693;28;45420;-81
2021/11/18 03:57:23;;;;;;;;;14.33;13.00;;;;;;;;4925172;28;45375;-82
2021/11/18 03:59:49;;;;;;;;;17.00;13.00;;;;;;;;4927682;28;47909;-82
2021/11/18 04:02:14;;;;;;;;;13.00;12.00;;;;;;;;4927632;28;45628;-82
2021/11/18 04:04:41;;;;;;;;;16.00;16.00;;;;;;;;4927719;28;45596;-81
2021/11/18 04:07:07;;;;;;;;;14.00;11.67;;;;;;;;4927165;28;45746;-81
2021/11/18 04:09:34;;;;;;;;;14.00;14.00;;;;;;;;4926945;28;47001;-81
2021/11/18 04:12:00;;;;;;;;;17.00;15.67;;;;;;;;4926985;28;45478;-82
2021/11/18 04:14:29;;;;;;;;;14.00;13.33;;;;;;;;4929274;28;45408;-82
2021/11/18 04:16:55;;;;;;;;;18.00;18.00;;;;;;;;4927485;28;45370;-81
2021/11/18 04:19:20;;;;;;;;;19.33;16.33;;;;;;;;4926573;28;46896;-81
2021/11/18 04:21:46;;;;;;;;;15.67;13.33;;;;;;;;4926746;28;45438;-81
2021/11/18 04:24:14;;;;;;;;;14.00;14.00;;;;;;;;4930453;28;45498;-82
2021/11/18 04:26:46;;;;;;;;;15.00;15.00;;;;;;;;4928350;28;45442;-81
2021/11/18 04:29:12;;;;;;;;;8.00;8.00;;;;;;;;4927938;28;47392;-81
2021/11/18 04:31:38;;;;;;;;;12.33;11.67;;;;;;;;4926748;28;45995;-81
2021/11/18 04:34:06;;;;;;;;;13.67;12.33;;;;;;;;4929764;28;45117;-80
2021/11/18 04:36:32;;;;;;;;;12.33;12.33;;;;;;;;4928769;28;45298;-82
2021/11/18 04:38:57;;;;;;;;;19.33;16.00;;;;;;;;4930012;28;45359;-82
2021/11/18 04:41:24;;;;;;;;;14.00;13.33;;;;;;;;4895128;28;45709;-81
2021/11/18 04:43:50;;;;;;;;;13.33;12.00;;;;;;;;4907291;29;45418;-81
2021/11/18 04:46:15;;;;;;;;;18.67;15.67;;;;;;;;4891262;29;45438;-81
2021/11/18 04:48:41;;;;;;;;;21.67;17.67;;;;;;;;4892311;29;46669;-81
2021/11/18 04:51:08;;;;;;;;;17.67;16.00;;;;;;;;4909861;29;45359;-81
2021/11/18 04:53:36;;;;;;;;;17.67;15.67;;;;;;;;4908483;28;45564;-81
2021/11/18 04:56:02;;;;;;;;;16.00;14.33;;;;;;;;4893120;29;45622;-81
2021/11/18 04:58:28;;;;;;;;;18.67;18.00;;;;;;;;4909105;28;45863;-81
2021/11/18 05:00:54;;;;;;;;;20.00;17.00;;;;;;;;4909999;28;45456;-81
2021/11/18 05:03:20;;;;;;;;;17.00;16.00;;;;;;;;4909676;29;45502;-81
2021/11/18 05:05:46;;;;;;;;;18.00;18.00;;;;;;;;4911552;29;45389;-81
2021/11/18 05:08:12;;;;;;;;;16.00;14.67;;;;;;;;4913058;28;46240;-81
2021/11/18 05:10:38;;;;;;;;;14.67;14.67;;;;;;;;4923791;28;45819;-81
2021/11/18 05:13:04;;;;;;;;;14.33;13.67;;;;;;;;4932342;28;45317;-81
2021/11/18 05:15:31;;;;;;;;;20.67;17.00;;;;;;;;4930410;28;45501;-81
2021/11/18 05:17:57;;;;;;;;;17.33;17.33;;;;;;;;4930575;28;46766;-82
2021/11/18 05:20:23;;;;;;;;;18.33;17.33;;;;;;;;4930637;28;45471;-81
2021/11/18 05:22:54;;;;;;;;;19.67;17.00;;;;;;;;4929408;28;45483;-81
2021/11/18 05:25:21;;;;;;;;;15.33;12.67;;;;;;;;4929224;28;45285;-81
2021/11/18 05:27:47;;;;;;;;;23.67;17.33;;;;;;;;4928717;28;49045;-81
2021/11/18 05:30:13;;;;;;;;;18.00;17.67;;;;;;;;4928320;28;45775;-81
2021/11/18 05:32:41;;;;;;;;;17.00;17.00;;;;;;;;4929786;28;44924;-81
2021/11/18 05:35:11;;;;;;;;;12.33;11.00;;;;;;;;4929558;28;45450;-81
2021/11/18 05:37:36;;;;;;;;;17.33;17.33;;;;;;;;4930894;28;45419;-81
2021/11/18 05:40:04;;;;;;;;;17.67;17.67;;;;;;;;4931574;28;45346;-81
2021/11/18 05:45:34;;;;;;;;;20.33;20.00;;;;;;;;4931357;28;45393;-81
2021/11/18 05:48:00;;;;;;;;;12.67;12.67;;;;;;;;4931533;28;45428;-81
2021/11/18 05:50:26;;;;;;;;;18.00;16.67;;;;;;;;4930961;28;45440;-81
2021/11/18 05:52:52;;;;;;;;;18.00;18.00;;;;;;;;4930418;28;45442;-81
2021/11/18 05:55:20;;;;;;;;;18.33;16.67;;;;;;;;4930529;28;45353;-81
2021/11/18 05:57:46;;;;;;;;;21.33;20.00;;;;;;;;4929554;28;46822;-81
2021/11/18 06:00:14;;;;;;;;;18.00;17.00;;;;;;;;4929611;28;44791;-81
2021/11/18 06:02:39;;;;;;;;;18.00;17.00;;;;;;;;4929309;28;45464;-82
2021/11/18 06:05:05;;;;;;;;;21.67;18.00;;;;;;;;4928313;28;45459;-82
2021/11/18 06:07:31;;;;;;;;;19.33;19.33;;;;;;;;4929041;28;47064;-82
2021/11/18 06:09:58;;;;;;;;;15.67;15.67;;;;;;;;4930121;28;44902;-81
2021/11/18 06:12:24;;;;;;;;;12.00;11.33;;;;;;;;4930301;28;45491;-81
2021/11/18 06:14:50;;;;;;;;;17.67;15.33;;;;;;;;4930452;28;45498;-81
2021/11/18 06:17:15;;;;;;;;;14.00;11.33;;;;;;;;4928257;28;45337;-81
2021/11/18 06:19:41;;;;;;;;;16.00;14.67;;;;;;;;4927436;28;45495;-81
2021/11/18 06:22:07;;;;;;;;;20.67;18.00;;;;;;;;4929044;28;45466;-81
2021/11/18 06:24:33;;;;;;;;;18.67;18.67;;;;;;;;4927964;28;45445;-81
2021/11/18 06:26:58;;;;;;;;;24.33;21.00;;;;;;;;4927132;28;47512;-81
2021/11/18 06:29:24;;;;;;;;;22.67;22.33;;;;;;;;4930394;28;45391;-82
2021/11/18 06:31:54;;;;;;;;;16.33;16.33;;;;;;;;4929570;28;45781;-81
2021/11/18 06:34:19;;;;;;;;;27.00;21.00;;;;;;;;4929740;28;45387;-80
2021/11/18 06:36:45;;;;;;;;;19.67;17.67;;;;;;;;4929803;28;45585;-80
2021/11/18 06:39:11;;;;;;;;;19.67;16.00;;;;;;;;4928920;28;44844;-81
2021/11/18 06:41:37;;;;;;;;;22.00;22.00;;;;;;;;4894620;29;45351;-80
2021/11/18 06:44:03;;;;;;;;;22.67;20.00;;;;;;;;4912758;28;45471;-81
2021/11/18 06:46:30;;;;;;;;;23.00;22.67;;;;;;;;4895469;29;46990;-81
2021/11/18 06:48:56;;;;;;;;;26.00;21.00;;;;;;;;4911853;29;45549;-81
2021/11/18 06:51:23;;;;;;;;;20.33;20.33;;;;;;;;4892332;29;45492;-81
2021/11/18 06:53:49;;;;;;;;;24.33;22.00;;;;;;;;4893683;29;44886;-81
2021/11/18 06:56:16;;;;;;;;;17.67;17.67;;;;;;;;4909081;29;45410;-81
2021/11/18 06:58:41;;;;;;;;;25.33;18.33;;;;;;;;4910219;29;45423;-81
2021/11/18 07:01:07;;;;;;;;;23.00;21.67;;;;;;;;4894044;29;45459;-81
2021/11/18 07:03:33;;;;;;;;;25.67;24.33;;;;;;;;4894835;29;45342;-81
2021/11/18 07:05:58;;;;;;;;;22.33;21.33;;;;;;;;4894402;28;47222;-81
2021/11/18 07:08:24;;;;;;;;;20.67;20.67;;;;;;;;4909426;28;45385;-81
2021/11/18 07:10:49;;;;;;;;;19.67;19.67;;;;;;;;4928618;28;45410;-81
2021/11/18 07:13:18;;;;;;;;;20.00;18.00;;;;;;;;4928405;28;45441;-83
2021/11/18 07:15:43;;;;;;;;;26.33;23.33;;;;;;;;4928285;28;47149;-83
2021/11/18 07:18:09;;;;;;;;;21.50;20.00;;;;;;;;4928830;28;45528;-83
2021/11/18 07:20:41;;;;;;;;;26.67;25.33;;;;;;;;4929627;28;45289;-81
2021/11/18 07:23:06;;;;;;;;;23.00;20.33;;;;;;;;4918790;28;45560;-82
2021/11/18 07:25:32;;;;;;;;;25.00;19.67;;;;;;;;4929116;28;46143;-82
2021/11/18 07:27:59;;;;;;;;;19.00;19.00;;;;;;;;4929777;28;45541;-82
2021/11/18 07:30:25;;;;;;;;;22.33;21.33;;;;;;;;4914441;28;45361;-82
2021/11/18 07:32:57;;;;;;;;;17.00;16.33;;;;;;;;4931813;28;45397;-81
2021/11/18 07:35:24;;;;;;;;;25.67;23.00;;;;;;;;4931950;28;46609;-82
2021/11/18 07:37:49;;;;;;;;;18.33;17.00;;;;;;;;4912951;28;45055;-81
2021/11/18 07:46:21;;;;;;;;;39.67;31.67;;;;;;;;4930988;28;45725;-81
2021/11/18 07:48:48;;;;;;;;;39.67;36.33;;;;;;;;4931079;28;45337;-81
2021/11/18 07:51:14;;;;;;;;;37.33;34.33;;;;;;;;4931787;28;45372;-81
2021/11/18 07:53:41;;;;;;;;;32.33;30.33;;;;;;;;4913508;28;45504;-81
2021/11/18 07:56:06;;;;;;;;;30.33;27.00;;;;;;;;4913354;28;46804;-81
2021/11/18 07:58:39;;;;;;;;;31.00;29.00;;;;;;;;4931420;28;45327;-81
2021/11/18 08:01:11;;;;;;;;;33.67;31.67;;;;;;;;4932692;28;45402;-81
2021/11/18 08:03:36;;;;;;;;;38.00;32.67;;;;;;;;4914818;28;45444;-81
2021/11/18 08:06:06;;;;;;;;;35.67;32.33;;;;;;;;4915616;28;45481;-84
2021/11/18 08:08:31;;;;;;;;;34.67;27.67;;;;;;;;4917243;28;45352;-83
2021/11/18 08:13:59;;;;;;;;;26.67;26.67;;;;;;;;4933353;28;44779;-83
2021/11/18 08:16:34;;;;;;;;;31.00;26.00;;;;;;;;4920838;28;46647;-83
2021/11/18 08:19:00;;;;;;;;;32.00;29.00;;;;;;;;4927612;28;45406;-81
2021/11/18 08:21:26;;;;;;;;;24.00;22.00;;;;;;;;4913279;29;44919;-81
2021/11/18 08:23:51;;;;;;;;;29.67;26.67;;;;;;;;4906209;28;45469;-81
2021/11/18 08:26:17;;;;;;;;;21.67;20.33;;;;;;;;4921814;28;45415;-82
2021/11/18 08:28:43;;;;;;;;;36.67;28.67;;;;;;;;4919669;28;45469;-82
2021/11/18 08:31:09;;;;;;;;;28.33;26.33;;;;;;;;4915450;28;44939;-81
2021/11/18 08:33:47;;;;;;;;;33.33;27.33;;;;;;;;4913272;28;45451;-81
2021/11/18 08:36:13;;;;;;;;;32.00;27.00;;;;;;;;4914493;28;45471;-82
2021/11/18 08:38:42;;;;;;;;;26.00;25.67;;;;;;;;4914875;28;45318;-83
2021/11/18 08:41:09;;;;;;;;;31.67;28.33;;;;;;;;4930925;28;45783;-81
2021/11/18 08:43:36;;;;;;;;;27.00;26.33;;;;;;;;4920922;28;45396;-81
2021/11/18 08:46:03;;;;;;;;;26.00;24.33;;;;;;;;4935222;28;46259;-82
2021/11/18 08:48:28;;;;;;;;;29.33;28.00;;;;;;;;4916570;28;45413;-82
2021/11/18 08:50:54;;;;;;;;;28.00;24.67;;;;;;;;4920353;28;45696;-81
2021/11/18 08:53:24;;;;;;;;;29.67;24.67;;;;;;;;4920408;28;45421;-80
2021/11/18 08:55:57;;;;;;;;;23.00;20.67;;;;;;;;4937722;28;45304;-81
2021/11/18 08:58:25;;;;;;;;;26.00;22.67;;;;;;;;4936210;28;45428;-82
2021/11/18 09:00:59;;;;;;;;;23.67;21.33;;;;;;;;4918778;28;45600;-82
2021/11/18 09:03:33;;;;;;;;;26.67;22.67;;;;;;;;4937895;28;45414;-80
2021/11/18 09:06:02;;;;;;;;;22.33;22.33;;;;;;;;4936035;28;45431;-82
2021/11/18 09:08:27;;;;;;;;;27.67;26.00;;;;;;;;4934833;28;45508;-80
2021/11/18 09:10:54;;;;;;;;;27.00;23.00;;;;;;;;4931502;28;45239;-81
2021/11/18 09:13:26;;;;;;;;;35.33;28.00;;;;;;;;4915981;28;45064;-81
2021/11/18 09:15:52;;;;;;;;;27.33;25.33;;;;;;;;4918601;29;45505;-82
2021/11/18 09:18:17;;;;;;;;;28.00;26.67;;;;;;;;4920248;28;45406;-82
2021/11/18 09:20:43;;;;;;;;;34.33;33.33;;;;;;;;4908401;28;45453;-82
2021/11/18 09:23:14;;;;;;;;;46.00;40.00;;;;;;;;4906729;28;45407;-82
2021/11/18 09:25:42;;;;;;;;;54.75;46.00;;;;;;;;4907097;28;47090;-83
2021/11/18 09:28:08;;;;;;;;;54.75;44.50;;;;;;;;4929640;28;45483;-82
2021/11/18 09:30:35;;;;;;;;;55.25;45.00;;;;;;;;4906652;28;45463;-83
2021/11/18 09:33:02;;;;;;;;;54.00;44.50;;;;;;;;4928897;28;45572;-82
2021/11/18 09:38:45;;;;;;;;;;;;;;;;;;;;;
2021/11/18 09:41:33;;;;;;;;;48.75;41.25;;;;;;;;4925036;28;67733;-83
2021/11/18 09:44:18;;;;;;;;;50.50;43.50;;;;;;;;4893714;29;45533;-83
2021/11/18 09:47:11;;;;;;;;;50.75;44.50;;;;;;;;4923631;28;46927;-84
2021/11/18 09:50:01;;;;;;;;;44.75;40.75;;;;;;;;4919388;28;45326;-82
2021/11/18 09:52:53;;;;;;;;;55.00;47.00;;;;;;;;4910469;28;45412;-82
2021/11/18 09:55:26;;;;;;;;;58.75;47.00;;;;;;;;4912427;28;44909;-83
2021/11/18 09:58:10;;;;;;;;;34.00;29.00;;;;;;;;4921372;28;45906;-85
2021/11/18 10:00:52;;;;;;;;;40.33;36.33;;;;;;;;4906548;28;45373;-83
2021/11/18 10:03:38;;;;;;;;;47.00;41.67;;;;;;;;4931150;28;45795;-81
2021/11/18 10:06:22;;;;;;;;;41.00;37.00;;;;;;;;4908696;28;44928;-82
2021/11/18 10:11:44;;;;;;;;;41.67;35.67;;;;;;;;5104575;23;45348;-82
2021/11/18 10:14:42;;;;;;;;;37.67;32.33;;;;;;;;4899725;29;45435;-82
2021/11/18 10:17:16;;;;;;;;;36.67;33.67;;;;;;;;4820598;29;45429;-83
2021/11/18 10:22:45;;;;;;;;;42.67;38.00;;;;;;;;4812103;29;44749;-82
2021/11/18 10:25:43;;;;;;;;;44.67;39.00;;;;;;;;4808473;29;45427;-84
2021/11/18 10:28:23;;;;;;;;;39.67;36.33;;;;;;;;4804841;29;45559;-81
2021/11/18 10:31:06;;;;;;;;;38.00;34.67;;;;;;;;4818384;29;46347;-84
2021/11/18 10:33:39;;;;;;;;;36.67;36.00;;;;;;;;4810194;29;45633;-82
2021/11/18 10:36:21;;;;;;;;;32.33;31.33;;;;;;;;4790512;29;45384;-82
2021/11/18 10:38:55;;;;;;;;;33.00;31.67;;;;;;;;4803109;29;45522;-81
2021/11/18 10:41:26;;;;;;;;;37.67;34.00;;;;;;;;4803802;29;47831;-83
2021/11/18 10:44:17;;;;;;;;;;;;;;;;;;;;;
2021/11/18 10:46:55;;;;;;;;;39.67;32.33;;;;;;;;4788725;29;67678;-81
2021/11/18 10:49:47;;;;;;;;;37.00;35.33;;;;;;;;4801197;29;45471;-82
2021/11/18 10:52:36;;;;;;;;;38.67;36.00;;;;;;;;4764018;29;45051;-82
2021/11/18 10:55:08;;;;;;;;;29.33;28.67;;;;;;;;4785248;29;45337;-82
2021/11/18 10:57:34;;;;;;;;;37.67;36.00;;;;;;;;4785183;29;45365;-82
2021/11/18 11:06:07;;;;;;;;;33.67;31.00;;;;;;;;4800769;29;44820;-82
2021/11/18 11:08:38;;;;;;;;;31.67;28.67;;;;;;;;4789392;29;45418;-81
2021/11/18 11:11:07;;;;;;;;;29.00;27.00;;;;;;;;4778793;29;45302;-83
2021/11/18 11:13:53;;;;;;;;;28.67;26.33;;;;;;;;4804581;29;45026;-82
2021/11/18 11:16:40;;;;;;;;;28.33;25.67;;;;;;;;4789646;29;45829;-81
2021/11/18 11:19:35;;;;;;;;;24.33;18.33;;;;;;;;4787858;29;45427;-81
2021/11/18 11:22:13;;;;;;;;;24.67;24.67;;;;;;;;4788190;29;45454;-81
2021/11/18 11:24:43;;;;;;;;;22.67;21.67;;;;;;;;4802703;29;46211;-81
2021/11/18 11:27:28;;;;;;;;;19.67;18.67;;;;;;;;4788803;29;45760;-83
2021/11/18 11:30:05;;;;;;;;;17.33;17.33;;;;;;;;4862311;29;45509;-82
2021/11/18 11:32:39;;;;;;;;;22.33;18.00;;;;;;;;4879520;29;44887;-82
2021/11/18 11:35:34;;;;;;;;;17.67;17.00;;;;;;;;4874341;29;47269;-82
2021/11/18 11:38:11;;;;;;;;;25.00;20.00;;;;;;;;4866128;29;44954;-83
2021/11/18 11:41:04;;;;;;;;;18.67;18.67;;;;;;;;4867820;29;44869;-83
2021/11/18 11:43:40;;;;;;;;;12.33;11.00;;;;;;;;4873356;29;45490;-82
2021/11/18 11:46:24;;;;;;;;;15.33;15.33;;;;;;;;4875255;29;45966;-81
2021/11/18 11:48:56;;;;;;;;;16.00;13.33;;;;;;;;4873903;29;44939;-82
2021/11/18 11:51:49;;;;;;;;;10.33;10.33;;;;;;;;4875769;29;45476;-82
2021/11/18 11:54:24;;;;;;;;;10.67;9.67;;;;;;;;4857139;29;44883;-83
2021/11/18 11:56:55;;;;;;;;;12.00;10.33;;;;;;;;4859554;29;46917;-82
2021/11/18 12:00:05;;;;;;;;;;;;;;;;;;;;;
2021/11/18 12:05:39;;;;;;;;;13.67;13.67;;;;;;;;4821293;29;45427;-85
2021/11/18 12:08:23;;;;;;;;;15.67;10.00;;;;;;;;4870407;29;45599;-82
2021/11/18 12:10:52;;;;;;;;;9.33;9.33;;;;;;;;4871795;29;45377;-83
2021/11/18 12:13:22;;;;;;;;;9.00;7.67;;;;;;;;4878944;29;45424;-82
2021/11/18 12:16:12;;;;;;;;;9.33;8.33;;;;;;;;4882781;29;45496;-84
2021/11/18 12:18:50;;;;;;;;;5.67;5.00;;;;;;;;4889038;29;47079;-83
2021/11/18 12:21:17;;;;;;;;;17.00;12.67;;;;;;;;4883382;29;44873;-83
2021/11/18 12:24:02;;;;;;;;;12.00;11.00;;;;;;;;4883293;29;45370;-83
2021/11/18 12:27:03;;;;;;;;;14.00;10.33;;;;;;;;4886965;29;45505;-85
2021/11/18 12:29:44;;;;;;;;;11.33;9.00;;;;;;;;4889246;29;45551;-85
2021/11/18 12:32:26;;;;;;;;;9.00;9.00;;;;;;;;4881717;29;45377;-83
2021/11/18 12:34:57;;;;;;;;;13.67;10.00;;;;;;;;4883357;29;44941;-83
2021/11/18 12:37:31;;;;;;;;;9.33;8.33;;;;;;;;4899850;29;45513;-86
2021/11/18 12:40:03;;;;;;;;;8.33;7.33;;;;;;;;4882676;29;45279;-83
2021/11/18 12:42:51;;;;;;;;;9.67;9.00;;;;;;;;4882483;29;45536;-85
2021/11/18 12:45:28;;;;;;;;;11.00;10.00;;;;;;;;4890071;29;45299;-84
2021/11/18 12:51:22;;;;;;;;;9.00;9.00;;;;;;;;4859438;29;45601;-82
2021/11/18 12:57:14;;;;;;;;;6.33;5.33;;;;;;;;4898992;29;45420;-83
2021/11/18 12:59:42;;;;;;;;;6.00;5.00;;;;;;;;4882850;29;45492;-83
2021/11/18 13:02:26;;;;;;;;;4.33;2.00;;;;;;;;4881328;29;47591;-83
2021/11/18 13:04:57;;;;;;;;;9.67;8.67;;;;;;;;4879110;29;45354;-82
2021/11/18 13:07:42;;;;;;;;;5.67;5.00;;;;;;;;4879427;29;45471;-83
2021/11/18 13:10:14;;;;;;;;;8.00;5.00;;;;;;;;4881622;29;45355;-81
2021/11/18 13:12:39;;;;;;;;;9.00;7.67;;;;;;;;4898973;29;46571;-84
2021/11/18 13:15:10;;;;;;;;;10.67;6.67;;;;;;;;4899458;29;44788;-84
2021/11/18 13:17:38;;;;;;;;;2.00;2.00;;;;;;;;4880127;29;44882;-83
2021/11/18 13:20:24;;;;;;;;;4.00;4.00;;;;;;;;4881312;29;44985;-85
2021/11/18 13:23:09;;;;;;;;;5.67;4.67;;;;;;;;4895415;29;45440;-82
2021/11/18 13:25:45;;;;;;;;;4.00;3.33;;;;;;;;4877400;29;45367;-83
2021/11/18 13:28:22;;;;;;;;;9.67;6.33;;;;;;;;4896743;29;45395;-83
2021/11/18 13:30:47;;;;;;;;;5.67;4.67;;;;;;;;4896307;29;45415;-82
2021/11/18 13:33:31;;;;;;;;;5.00;5.00;;;;;;;;4882778;29;47146;-82
2021/11/18 13:36:03;;;;;;;;;5.33;5.00;;;;;;;;4886056;29;45484;-84
2021/11/18 13:38:33;;;;;;;;;8.33;6.00;;;;;;;;4897397;29;45610;-84
2021/11/18 13:41:05;;;;;;;;;6.33;6.33;;;;;;;;4882808;29;45496;-84
2021/11/18 13:50:00;;;;;;;;;5.00;5.00;;;;;;;;4854594;29;44859;-83
2021/11/18 13:52:31;;;;;;;;;11.00;9.00;;;;;;;;4858024;29;45387;-83
2021/11/18 13:55:21;;;;;;;;;5.33;5.00;;;;;;;;4858586;29;45530;-83
2021/11/18 13:57:59;;;;;;;;;5.67;4.00;;;;;;;;4831445;29;45543;-84
2021/11/18 14:00:32;;;;;;;;;6.00;6.00;;;;;;;;4862179;29;44821;-83
2021/11/18 14:03:16;;;;;;;;;6.00;6.00;;;;;;;;4856717;29;45411;-82
2021/11/18 14:12:00;;;;;;;;;11.33;8.00;;;;;;;;4851757;29;44838;-83
2021/11/18 14:14:43;;;;;;;;;5.67;5.33;;;;;;;;4822852;29;45652;-84
2021/11/18 14:17:17;;;;;;;;;7.67;6.00;;;;;;;;4822741;29;45539;-84
2021/11/18 14:20:14;;;;;;;;;;;;;;;;;;;;;
2021/11/18 14:23:16;;;;;;;;;8.00;4.67;;;;;;;;4846726;29;67720;-84
2021/11/18 14:26:02;;;;;;;;;8.33;6.67;;;;;;;;4860823;29;45448;-84
2021/11/18 14:28:34;;;;;;;;;6.00;6.00;;;;;;;;5022157;23;45256;-84
2021/11/18 14:31:01;;;;;;;;;10.33;8.00;;;;;;;;4898135;29;45017;-82
2021/11/18 14:33:40;;;;;;;;;5.00;5.00;;;;;;;;4879778;29;45375;-82
2021/11/18 14:39:20;;;;;;;;;10.00;9.00;;;;;;;;4888950;29;45522;-84
2021/11/18 14:41:51;;;;;;;;;6.00;6.00;;;;;;;;4889860;29;45827;-83
2021/11/18 14:45:12;;;;;;;;;8.33;5.33;;;;;;;;4896463;29;45346;-85
2021/11/18 14:51:14;;;;;;;;;8.00;6.00;;;;;;;;4819718;29;46564;-84
2021/11/18 14:54:10;;;;;;;;;;;;;;;;;;;;;
2021/11/18 14:56:54;;;;;;;;;7.00;7.00;;;;;;;;4819999;29;69074;-85
2021/11/18 14:59:37;;;;;;;;;6.00;6.00;;;;;;;;4820063;29;45421;-86
2021/11/18 15:02:12;;;;;;;;;8.00;5.67;;;;;;;;4812401;29;45479;-85
2021/11/18 15:04:40;;;;;;;;;7.67;5.33;;;;;;;;4821511;29;45183;-84
2021/11/18 15:07:12;;;;;;;;;5.00;5.00;;;;;;;;4807945;29;45452;-85
2021/11/18 15:09:40;;;;;;;;;5.33;5.00;;;;;;;;4803488;29;45387;-85
2021/11/18 15:12:08;;;;;;;;;5.67;5.67;;;;;;;;4819336;29;45446;-85
2021/11/18 15:14:34;;;;;;;;;8.00;8.00;;;;;;;;4816013;29;45992;-85
2021/11/18 15:17:00;;;;;;;;;6.67;6.67;;;;;;;;4814717;29;44797;-84
2021/11/18 15:19:26;;;;;;;;;4.33;4.33;;;;;;;;4802905;29;45378;-84
2021/11/18 15:24:46;;;;;;;;;7.33;6.00;;;;;;;;4811159;29;44810;-85
2021/11/18 15:27:13;;;;;;;;;8.33;6.33;;;;;;;;4827537;29;45270;-86
2021/11/18 15:29:48;;;;;;;;;9.33;6.33;;;;;;;;4859810;29;45462;-85
2021/11/18 15:32:22;;;;;;;;;6.00;6.00;;;;;;;;4877752;29;45316;-85
2021/11/18 15:38:11;;;;;;;;;6.00;6.00;;;;;;;;4881719;28;45297;-84
2021/11/18 15:40:39;;;;;;;;;5.00;5.00;;;;;;;;4867260;29;45664;-83
2021/11/18 15:43:13;;;;;;;;;7.33;7.33;;;;;;;;4879721;29;47161;-84
2021/11/18 15:45:46;;;;;;;;;9.67;8.33;;;;;;;;4895691;29;44837;-84
2021/11/18 15:48:16;;;;;;;;;12.00;10.67;;;;;;;;4895402;28;44785;-85
2021/11/18 15:50:44;;;;;;;;;9.67;9.67;;;;;;;;4878316;29;46013;-85
2021/11/18 15:56:12;;;;;;;;;6.33;5.33;;;;;;;;4882157;29;45425;-85
2021/11/18 15:58:41;;;;;;;;;10.33;8.33;;;;;;;;4878194;29;44958;-86
2021/11/18 16:01:11;;;;;;;;;9.33;9.00;;;;;;;;4879338;29;45483;-84